Latest Coastal Weather Observations for Point Stuart

IDD60701

Issued at 8:31 pm CST Saturday 22 February 2020 (issued every 10 minutes, with the page automatically refreshed every 10 minutes)

About coastal observations | Map of coastal stations | Coastal observations for NT | Marine services | Other Formats
Station Details ID: 014254 Name: POINT STUART Lat: -12.24 Lon: 131.88 Height: 1.0 m
Data from the previous 72 hours. | See also: Recent months at Point Stuart
Date/Time
CST
Wind Sea
Height
m
Swell Vis
km
Cloud Weather Temp
°C
Press
hPa
Rain since
9am
mm
Dir  Spd
kts
Gust
kts
Height
m
Period
s
Dir
21/12:30pm SW 8 12 - - - - - - - 30.6 1008.3 0.0
21/12:00pm SSW 7 8 - - - - - - - 30.1 1008.7 0.0
21/11:30am SW 7 8 - - - - - - - 29.4 1008.8 0.0
21/11:00am SW 7 9 - - - - - - - 28.9 1008.9 0.0
21/10:30am SSW 7 9 - - - - - - - 28.1 1008.9 0.0
21/10:00am SW 8 11 - - - - - - - 27.4 1008.9 0.0
21/09:30am SW 9 13 - - - - - - - 27.6 1009.0 0.0
21/09:00am SW 7 10 - - - - - - - 27.1 1008.7 24.6
21/08:30am SSW 9 10 - - - - - - - 25.7 1008.2 24.6
21/08:00am SSW 9 12 - - - - - - - 24.7 1007.6 24.6
21/07:30am SW 8 10 - - - - - - - 24.2 1007.3 24.6
21/07:00am SW 6 8 - - - - - - - 23.8 1006.9 24.6
21/06:30am SSW 5 7 - - - - - - - 23.9 1006.7 24.6
21/06:00am SSW 7 9 - - - - - - - 24.1 1006.6 24.6
21/05:30am SSW 7 9 - - - - - - - 24.1 1006.5 24.6
21/05:00am SW 9 11 - - - - - - - 24.2 1006.7 24.6
21/04:30am SW 7 9 - - - - - - - 24.5 1006.9 24.6
21/04:00am SW 7 9 - - - - - - - 24.9 1007.1 24.6
21/03:30am WNW 5 6 - - - - - - - 25.4 1007.1 24.6
21/03:00am N 4 5 - - - - - - - 24.9 1006.9 24.6
21/02:30am NNW 5 8 - - - - - - - 24.7 1007.2 24.4
21/02:00am NNW 5 8 - - - - - - - 24.4 1007.9 24.4
21/01:30am NNW 6 10 - - - - - - - 24.4 1008.6 24.4
21/01:00am NW 9 12 - - - - - - - 24.4 1009.4 24.2
21/12:30am NNW 7 10 - - - - - - - 24.0 1010.0 23.4
21/12:00am NW 6 7 - - - - - - - 23.9 1010.1 22.6
 
Date/Time
CST
Wind Sea
Height
m
Swell Vis
km
Cloud Weather Temp
°C
Press
hPa
Rain since
9am
mm
Dir  Spd
kts
Gust
kts
Height
m
Period
s
Dir
20/11:30pm WNW 5 5 - - - - - - - 23.8 1010.1 21.8
20/11:00pm CALM 0 0 - - - - - - - 23.8 1010.1 20.4
20/10:30pm N 3 4 - - - - - - - 24.4 1010.0 19.2
20/10:00pm SSE 4 5 - - - - - - - 24.7 1009.7 18.0
20/09:30pm S 5 7 - - - - - - - 24.9 1009.7 15.8
20/09:00pm SE 10 13 - - - - - - - 24.6 1008.5 13.2
20/08:30pm SSE 14 18 - - - - - - - 24.5 1007.9 10.0
20/08:00pm S 11 16 - - - - - - - 25.0 1008.0 6.8
20/07:30pm SSE 12 18 - - - - - - - 24.8 1007.4 4.4
20/07:00pm S 18 22 - - - - - - - 25.2 1006.8 1.8
20/06:47pm S 17 25 - - - - - - - 25.7 1006.4 1.2
20/06:30pm SW 20 33 - - - - - - - 26.6 1005.8 0.0
20/06:26pm SW 22 33 - - - - - - - 27.0 1005.5 0.0
20/06:23pm WSW 24 33 - - - - - - - 27.7 1005.4 0.0
20/06:21pm WNW 19 33 - - - - - - - 30.0 1005.2 0.0
20/06:00pm WNW 17 22 - - - - - - - 30.0 1004.4 0.0
20/05:30pm NW 15 22 - - - - - - - 30.9 1003.6 0.0
20/05:00pm NW 16 20 - - - - - - - 31.0 1003.3 0.0
20/04:30pm WNW 14 19 - - - - - - - 30.4 1003.7 0.0
20/04:00pm WNW 13 19 - - - - - - - 30.3 1004.0 0.0
20/03:30pm N 4 8 - - - - - - - 31.2 1004.7 0.0
20/03:00pm NNW 4 6 - - - - - - - 31.4 1005.6 0.0
20/02:30pm N 5 7 - - - - - - - 31.0 1005.8 0.0
20/02:00pm W 4 7 - - - - - - - 30.9 1006.2 0.0
20/01:30pm SW 5 8 - - - - - - - 30.6 1006.4 0.0
20/01:00pm SSW 4 6 - - - - - - - 30.1 1006.7 0.0
20/12:30pm SSW 4 6 - - - - - - - 29.3 1007.2 0.0
20/12:00pm W 2 5 - - - - - - - 29.0 1007.3 0.0
20/11:30am W 5 6 - - - - - - - 28.2 1007.7 0.0
20/11:00am W 4 6 - - - - - - - 27.9 1007.8 0.0
20/10:30am SW 4 6 - - - - - - - 27.5 1007.8 0.0
20/10:00am SW 6 9 - - - - - - - 26.8 1007.6 0.0
20/09:30am SW 7 8 - - - - - - - 26.4 1007.2 0.0
20/09:00am SW 8 10 - - - - - - - 25.8 1007.1 88.0
20/08:30am SSW 9 10 - - - - - - - 24.8 1007.3 88.0
20/08:00am SSW 8 11 - - - - - - - 24.0 1006.9 88.0
20/07:30am SSW 8 11 - - - - - - - 23.7 1006.5 88.0
20/07:00am WSW 7 10 - - - - - - - 23.5 1005.8 88.0
20/06:30am WSW 10 14 - - - - - - - 23.5 1005.7 88.0
20/06:00am WSW 11 14 - - - - - - - 23.9 1006.1 88.0
20/05:30am W 12 15 - - - - - - - 24.1 1006.5 88.0
20/05:00am W 8 10 - - - - - - - 23.7 1006.5 87.8
20/04:30am W 8 11 - - - - - - - 23.7 1006.4 87.8
20/04:00am WSW 11 14 - - - - - - - 23.8 1006.2 87.8
20/03:30am WSW 11 14 - - - - - - - 23.9 1006.4 87.8
20/03:00am W 9 12 - - - - - - - 23.9 1006.3 87.8
20/02:30am W 9 12 - - - - - - - 23.6 1006.4 87.8
20/02:00am WSW 5 6 - - - - - - - 23.5 1006.7 87.8
20/01:30am SSW 4 6 - - - - - - - 23.3 1006.9 87.6
20/01:00am SSE 4 6 - - - - - - - 23.4 1008.3 86.8
20/12:30am S 10 15 - - - - - - - 23.8 1009.4 71.6
20/12:00am NE 4 6 - - - - - - - 25.0 1009.0 45.6
 
Date/Time
CST
Wind Sea
Height
m
Swell Vis
km
Cloud Weather Temp
°C
Press
hPa
Rain since
9am
mm
Dir  Spd
kts
Gust
kts
Height
m
Period
s
Dir
19/11:30pm ENE 4 8 - - - - - - - 25.0 1008.7 43.8
19/11:00pm E 6 9 - - - - - - - 24.7 1009.2 42.6
19/10:30pm NE 7 10 - - - - - - - 23.9 1008.2 42.4
19/10:00pm E 9 11 - - - - - - - 23.8 1008.5 40.6
19/09:30pm ESE 10 15 - - - - - - - 23.5 1008.4 21.2
19/09:08pm ESE 13 24 - - - - - - - 23.5 1008.0 4.4
19/09:00pm E 21 39 - - - - - - - 24.0 1007.1 0.0
19/08:53pm E 18 34 - - - - - - - 24.6 1006.5 0.0
19/08:43pm SSE 14 19 - - - - - - - 28.6 1007.1 0.0

Other formats

Comma delimited format used in spreadsheet applications
http://www.bom.gov.au/fwo/IDD60701/IDD60701.94127.axf

JavaScript Object Notation format (JSON) in row-major order
http://www.bom.gov.au/fwo/IDD60701/IDD60701.94127.json

Data quality

Most of these data are generated automatically and are frequently updated. Quality checks on data are not normally performed. It is possible for incorrect values to appear. Refer to information at About Latest Weather Observations and please check the disclaimer before using these data.